createdAt,value
2022-10-01T00:00:48.157Z,39.24
2022-10-01T00:06:42.277Z,39.37
2022-10-01T00:16:09.353Z,39.30
2022-10-01T00:25:32.092Z,39.37
2022-10-01T00:31:20.410Z,39.14
2022-10-01T00:40:43.153Z,39.37
2022-10-01T00:50:22.380Z,39.42
2022-10-01T00:56:13.167Z,39.54
2022-10-01T00:59:06.998Z,39.40
2022-10-01T01:05:01.533Z,39.31
2022-10-01T01:08:22.247Z,39.33
2022-10-01T01:14:36.951Z,39.41
2022-10-01T01:24:03.747Z,39.22
2022-10-01T01:33:27.553Z,39.40
2022-10-01T01:42:50.554Z,39.26
2022-10-01T01:52:17.057Z,39.33
2022-10-01T02:01:41.674Z,39.64
2022-10-01T02:11:15.753Z,40.02
2022-10-01T02:20:44.526Z,40.63
2022-10-01T02:26:34.961Z,40.78
2022-10-01T02:39:21.488Z,41.09
2022-10-01T02:48:51.686Z,41.77
2022-10-01T03:01:43.398Z,42.13
2022-10-01T03:14:34.145Z,42.61
2022-10-01T03:23:57.028Z,42.80
2022-10-01T03:33:19.209Z,42.54
2022-10-01T03:35:45.416Z,42.68
2022-10-01T03:48:12.676Z,43.30
2022-10-01T03:57:35.385Z,43.07
2022-10-01T04:10:26.192Z,44.58
2022-10-01T04:23:17.286Z,45.33
2022-10-01T04:28:36.102Z,45.60
2022-10-01T04:48:29.165Z,45.73
2022-10-01T04:57:52.225Z,45.67
2022-10-01T05:10:37.244Z,46.39
2022-10-01T05:16:54.110Z,46.37
2022-10-01T05:25:52.489Z,46.04
2022-10-01T05:35:15.179Z,46.03
2022-10-01T05:44:45.860Z,46.05
2022-10-01T05:57:36.067Z,45.59
2022-10-01T06:16:36.207Z,45.62
2022-10-01T06:29:26.651Z,45.31
2022-10-01T06:38:49.419Z,45.50
2022-10-01T06:51:52.874Z,45.98
2022-10-01T07:01:19.605Z,45.78
2022-10-01T07:06:58.157Z,46.13
2022-10-01T07:12:53.283Z,46.27
2022-10-01T07:25:43.297Z,46.28
2022-10-01T07:31:38.689Z,46.04
2022-10-01T07:41:05.505Z,46.23
2022-10-01T07:47:00.009Z,46.19
2022-10-01T07:56:21.622Z,46.28
2022-10-01T08:12:42.657Z,46.36
2022-10-01T08:29:01.169Z,46.40
2022-10-01T08:32:22.857Z,46.32
2022-10-01T08:42:03.653Z,46.40
2022-10-01T08:45:09.081Z,46.39
2022-10-01T08:54:31.381Z,46.47
2022-10-01T09:07:28.974Z,46.83
2022-10-01T09:10:34.056Z,47.04
2022-10-01T09:19:57.234Z,46.88
2022-10-01T09:32:30.208Z,46.72
2022-10-01T09:41:51.995Z,46.46
2022-10-01T09:51:19.258Z,46.34
2022-10-01T10:04:10.177Z,46.14
2022-10-01T10:16:54.706Z,46.33
2022-10-01T10:26:22.071Z,46.33
2022-10-01T10:42:47.327Z,46.32
2022-10-01T10:48:43.973Z,46.20
2022-10-01T11:05:16.614Z,46.84
2022-10-01T11:18:23.139Z,46.65
2022-10-01T11:31:26.450Z,46.35
2022-10-01T11:34:21.811Z,46.61
2022-10-01T11:43:40.364Z,46.47
2022-10-01T11:56:53.029Z,46.54
2022-10-01T12:09:55.330Z,45.60
2022-10-01T12:13:05.657Z,45.47
2022-10-01T12:22:30.912Z,45.06
2022-10-01T12:35:36.512Z,43.71
2022-10-01T12:48:31.153Z,43.25
2022-10-01T13:01:40.863Z,45.30
2022-10-01T13:14:33.295Z,46.50
2022-10-01T13:27:56.938Z,47.06
2022-10-01T13:33:56.385Z,46.86
2022-10-01T13:46:24.759Z,47.07
2022-10-01T13:55:41.870Z,47.15
2022-10-01T14:08:23.300Z,47.31
2022-10-01T14:21:13.987Z,47.41
2022-10-01T14:24:27.356Z,46.88
2022-10-01T14:37:18.802Z,47.31
2022-10-01T14:50:17.647Z,46.88
2022-10-01T14:53:22.639Z,46.99
2022-10-01T15:02:47.385Z,46.45
2022-10-01T15:05:52.642Z,46.68
2022-10-01T15:15:29.571Z,46.49
2022-10-01T15:25:11.035Z,46.40
2022-10-01T15:31:00.828Z,46.45
2022-10-01T15:40:22.140Z,46.56
2022-10-01T15:49:38.069Z,46.32
2022-10-01T16:02:32.959Z,45.95
2022-10-01T16:15:27.700Z,45.87
2022-10-01T16:28:28.454Z,45.66
2022-10-01T16:41:22.330Z,45.63
2022-10-01T16:47:11.420Z,45.57
2022-10-01T16:56:36.413Z,45.46
2022-10-01T17:09:27.193Z,45.40
2022-10-01T17:22:18.138Z,45.48
2022-10-01T17:28:14.851Z,45.31
2022-10-01T17:41:12.014Z,45.58
2022-10-01T17:50:27.989Z,45.47
2022-10-01T17:59:44.066Z,45.60
2022-10-01T18:09:04.862Z,45.76
2022-10-01T18:19:51.312Z,45.60
2022-10-01T18:28:09.260Z,45.54
2022-10-01T18:41:03.310Z,45.69
2022-10-01T18:50:27.800Z,45.88
2022-10-01T18:53:37.868Z,45.47
2022-10-01T19:03:04.273Z,45.70
2022-10-01T19:16:13.889Z,45.63
2022-10-01T19:25:37.546Z,45.82
2022-10-01T19:35:02.786Z,45.79
2022-10-01T19:41:15.515Z,45.96
2022-10-01T19:47:25.094Z,46.08
2022-10-01T19:50:24.946Z,46.00
2022-10-01T19:59:41.144Z,46.12
2022-10-01T20:12:43.282Z,46.08
2022-10-01T20:15:52.807Z,45.96
2022-10-01T20:21:44.313Z,45.79
2022-10-01T20:24:20.258Z,45.82
2022-10-01T20:40:49.714Z,45.98
2022-10-01T20:43:51.735Z,46.13
2022-10-01T20:53:22.078Z,46.16
2022-10-01T21:06:15.030Z,46.27
2022-10-01T21:19:17.075Z,46.24
2022-10-01T21:25:15.011Z,46.26
2022-10-01T21:38:08.017Z,46.32
2022-10-01T21:50:55.229Z,46.38
2022-10-01T22:03:53.116Z,46.52
2022-10-01T22:16:51.525Z,46.27
2022-10-01T22:29:41.377Z,46.23
2022-10-01T22:32:28.392Z,46.28
2022-10-01T22:45:15.281Z,46.64
2022-10-01T22:51:16.187Z,46.46
2022-10-01T22:57:29.775Z,46.35
2022-10-01T23:00:49.241Z,46.44
2022-10-01T23:06:55.040Z,46.75
2022-10-01T23:19:56.095Z,46.67
2022-10-01T23:29:33.631Z,46.67
2022-10-01T23:38:56.141Z,46.74
2022-10-01T23:48:30.521Z,46.69
2022-10-01T23:51:06.090Z,46.71
